Time;durP1;ratioP1;P1;durP2;ratioP2;P2;SDS_P1;SDS_P2;PMS_P1;PMS_P2;Temp;Humidity;BMP_temperature;BMP_pressure;BME280_temperature;BME280_humidity;BME280_pressure;Samples;Min_cycle;Max_cycle;Signal;HPM_P1;HPM_P2
2022/01/01 00:02:24;;;;;;;7.72;2.17;;;22.30;58.80;;;;;;4965475;28;20197;-76
2022/01/01 00:04:50;;;;;;;3.22;1.73;;;22.30;58.90;;;;;;4964421;28;20129;-73
2022/01/01 00:07:17;;;;;;;5.32;1.98;;;22.30;59.00;;;;;;4968993;28;20050;-73
2022/01/01 00:09:44;;;;;;;2.85;2.10;;;22.20;59.10;;;;;;4965528;28;20695;-77
2022/01/01 00:12:11;;;;;;;10.02;2.70;;;22.20;59.10;;;;;;4949993;28;20018;-73
2022/01/01 00:14:38;;;;;;;14.23;2.65;;;22.20;59.30;;;;;;4968529;28;20026;-77
2022/01/01 00:17:07;;;;;;;14.52;3.08;;;22.20;59.50;;;;;;4965256;28;20022;-75
2022/01/01 00:19:33;;;;;;;6.63;1.85;;;22.20;59.60;;;;;;4965161;28;20038;-73
2022/01/01 00:22:01;;;;;;;15.00;2.95;;;22.20;59.60;;;;;;4968028;28;20030;-77
2022/01/01 00:24:28;;;;;;;7.28;2.75;;;22.10;59.40;;;;;;4967184;28;20179;-75
2022/01/01 00:26:55;;;;;;;3.95;1.92;;;22.20;59.40;;;;;;4967420;28;20030;-78
2022/01/01 00:29:21;;;;;;;10.68;2.08;;;22.10;59.40;;;;;;4969808;28;20022;-76
2022/01/01 00:31:48;;;;;;;4.72;2.42;;;22.10;59.40;;;;;;4970072;28;20054;-72
2022/01/01 00:34:14;;;;;;;5.00;2.20;;;22.10;59.40;;;;;;4969354;28;20042;-73
2022/01/01 00:36:41;;;;;;;8.60;2.25;;;22.10;59.50;;;;;;4971996;28;20027;-75
2022/01/01 00:39:07;;;;;;;6.18;2.05;;;22.10;59.50;;;;;;4967355;28;20110;-75
2022/01/01 00:41:34;;;;;;;2.80;1.40;;;22.10;59.50;;;;;;4964601;28;20039;-75
2022/01/01 00:44:00;;;;;;;3.45;2.10;;;22.10;59.50;;;;;;4972335;28;20549;-75
2022/01/01 00:46:27;;;;;;;3.35;1.88;;;22.10;59.40;;;;;;4969058;28;20180;-73
2022/01/01 00:48:53;;;;;;;4.88;2.10;;;22.10;59.50;;;;;;4971230;28;20038;-75
2022/01/01 00:51:23;;;;;;;5.22;1.70;;;22.10;59.40;;;;;;4970880;28;20034;-74
2022/01/01 00:53:50;;;;;;;2.80;1.40;;;22.20;59.50;;;;;;4970454;28;20023;-73
2022/01/01 00:56:17;;;;;;;7.13;1.60;;;22.10;59.30;;;;;;4970126;28;20027;-73
2022/01/01 00:58:43;;;;;;;12.35;2.17;;;22.20;59.40;;;;;;4969581;28;20489;-73
2022/01/01 01:01:10;;;;;;;8.98;1.42;;;22.10;59.50;;;;;;4966012;28;20359;-74
2022/01/01 01:03:36;;;;;;;4.40;1.20;;;22.20;59.90;;;;;;4970592;28;20039;-73
2022/01/01 01:06:03;;;;;;;5.63;1.83;;;22.10;59.80;;;;;;4972193;28;20023;-73
2022/01/01 01:08:30;;;;;;;6.30;1.45;;;22.10;59.80;;;;;;4971485;28;20039;-78
2022/01/01 01:10:57;;;;;;;10.38;1.80;;;22.20;59.90;;;;;;4970176;28;20031;-74
2022/01/01 01:13:27;;;;;;;7.70;1.48;;;22.20;60.00;;;;;;4968513;28;20046;-74
2022/01/01 01:15:53;;;;;;;32.88;5.22;;;22.20;60.10;;;;;;4967748;28;20022;-75
2022/01/01 01:18:20;;;;;;;4.78;1.35;;;22.20;60.00;;;;;;4967601;28;20027;-75
2022/01/01 01:20:46;;;;;;;5.55;1.20;;;22.20;59.90;;;;;;4971136;28;20041;-73
2022/01/01 01:23:13;;;;;;;3.92;1.55;;;22.20;59.70;;;;;;4964779;28;20030;-76
2022/01/01 01:25:41;;;;;;;16.77;1.67;;;22.10;59.50;;;;;;4968863;28;20030;-74
2022/01/01 01:28:09;;;;;;;11.70;2.60;;;22.10;59.60;;;;;;4970223;28;20027;-72
2022/01/01 01:30:37;;;;;;;14.93;2.65;;;22.10;60.20;;;;;;4969290;28;20023;-74
2022/01/01 01:33:05;;;;;;;10.40;1.70;;;22.10;60.70;;;;;;4969642;28;20138;-73
2022/01/01 01:35:33;;;;;;;4.32;1.33;;;22.10;60.80;;;;;;4969578;28;20023;-75
2022/01/01 01:37:59;;;;;;;4.55;1.23;;;22.10;60.80;;;;;;4969463;28;20030;-73
2022/01/01 01:40:26;;;;;;;6.15;1.67;;;22.10;60.90;;;;;;4967989;28;20015;-74
2022/01/01 01:42:53;;;;;;;12.43;2.05;;;22.10;60.90;;;;;;4970529;28;20018;-73
2022/01/01 01:45:22;;;;;;;6.45;1.10;;;22.10;61.00;;;;;;4969022;28;20023;-72
2022/01/01 01:47:50;;;;;;;1.60;1.17;;;22.10;61.00;;;;;;4969684;28;20031;-72
2022/01/01 01:50:18;;;;;;;5.40;1.48;;;22.10;61.00;;;;;;4966600;28;20057;-73
2022/01/01 01:52:51;;;;;;;8.38;1.60;;;22.10;61.00;;;;;;4966012;28;20029;-75
2022/01/01 01:55:18;;;;;;;3.42;1.35;;;22.10;61.10;;;;;;4966880;28;20027;-76
2022/01/01 01:57:44;;;;;;;5.13;2.10;;;22.10;61.20;;;;;;4970337;28;20026;-77
2022/01/01 02:01:19;;;;;;;3.13;0.88;;;22.10;61.20;;;;;;4968932;28;20023;-77
2022/01/01 02:03:06;;;;;;;1.77;1.10;;;22.10;61.20;;;;;;4954625;28;20160;-77
2022/01/01 02:05:36;;;;;;;5.82;1.77;;;22.10;61.20;;;;;;4969146;28;20171;-77
2022/01/01 02:08:04;;;;;;;9.48;1.30;;;22.10;61.20;;;;;;4966328;28;20613;-77
2022/01/01 02:10:32;;;;;;;12.10;1.58;;;22.10;61.40;;;;;;4966147;28;20027;-77
2022/01/01 02:13:05;;;;;;;7.47;1.98;;;22.10;61.50;;;;;;4970046;28;20039;-76
2022/01/01 02:15:59;;;;;;;3.83;1.58;;;22.10;61.60;;;;;;4968740;28;20644;-77
2022/01/01 02:18:26;;;;;;;6.95;1.67;;;22.10;61.60;;;;;;4969499;28;20033;-78
2022/01/01 02:20:55;;;;;;;4.65;1.45;;;22.10;61.90;;;;;;4965810;28;20057;-78
2022/01/01 02:23:25;;;;;;;4.68;1.38;;;22.10;62.00;;;;;;4969952;28;20035;-78
2022/01/01 02:25:56;;;;;;;6.03;2.47;;;22.10;62.20;;;;;;4969459;28;20019;-77
2022/01/01 02:28:23;;;;;;;3.83;1.02;;;22.00;62.20;;;;;;4966662;28;20030;-77
2022/01/01 02:30:50;;;;;;;5.38;1.40;;;22.10;62.20;;;;;;4969958;28;20106;-78
2022/01/01 02:33:18;;;;;;;3.13;1.08;;;22.00;62.10;;;;;;4966345;28;20366;-74
2022/01/01 02:35:44;;;;;;;3.28;1.15;;;22.00;62.10;;;;;;4958191;28;20054;-77
2022/01/01 02:38:12;;;;;;;3.47;1.38;;;22.00;62.10;;;;;;4966909;28;21022;-78
2022/01/01 02:40:39;;;;;;;6.93;1.45;;;22.00;62.40;;;;;;4967646;28;20054;-79
2022/01/01 02:43:05;;;;;;;6.70;2.40;;;22.00;62.80;;;;;;4970827;28;20035;-76
2022/01/01 02:45:32;;;;;;;2.33;1.35;;;22.00;63.20;;;;;;4967304;28;20023;-71
2022/01/01 02:47:59;;;;;;;11.32;1.45;;;22.00;63.70;;;;;;4968671;28;20471;-77
2022/01/01 02:50:26;;;;;;;5.00;1.45;;;22.00;64.10;;;;;;4963429;28;20465;-78
2022/01/01 02:52:52;;;;;;;7.63;1.60;;;21.90;64.40;;;;;;4968275;28;20027;-77
2022/01/01 02:55:19;;;;;;;4.50;1.67;;;21.90;64.60;;;;;;4968088;28;20019;-77
2022/01/01 02:57:45;;;;;;;6.78;1.58;;;21.90;64.90;;;;;;4969659;28;20026;-76
2022/01/01 03:00:12;;;;;;;3.75;1.92;;;21.90;65.10;;;;;;4968913;28;20050;-75
2022/01/01 03:02:39;;;;;;;4.68;1.45;;;21.90;65.20;;;;;;4967996;28;20065;-76
2022/01/01 03:05:07;;;;;;;18.13;2.75;;;21.90;65.40;;;;;;4969667;28;20386;-77
2022/01/01 03:07:38;;;;;;;21.10;2.75;;;21.90;65.70;;;;;;4967213;28;20489;-75
2022/01/01 03:10:05;;;;;;;19.98;3.58;;;21.90;65.90;;;;;;4967097;28;20077;-72
2022/01/01 03:12:32;;;;;;;23.38;2.47;;;21.90;66.10;;;;;;4963614;28;20111;-74
2022/01/01 03:14:58;;;;;;;15.20;1.90;;;21.90;65.80;;;;;;4967630;28;20019;-75
2022/01/01 03:17:25;;;;;;;7.57;1.50;;;21.80;65.50;;;;;;4969499;28;20027;-74
2022/01/01 03:19:51;;;;;;;15.10;2.25;;;21.80;65.40;;;;;;4967083;28;20027;-75
2022/01/01 03:22:17;;;;;;;34.55;4.10;;;21.80;65.40;;;;;;4968393;28;20426;-75
2022/01/01 03:24:44;;;;;;;31.42;3.35;;;21.80;65.30;;;;;;4968888;28;20038;-75
2022/01/01 03:27:10;;;;;;;31.77;4.18;;;21.80;65.40;;;;;;4968426;28;20109;-75
2022/01/01 03:29:38;;;;;;;13.63;1.98;;;21.80;65.40;;;;;;4967649;28;20063;-75
2022/01/01 03:32:05;;;;;;;22.05;2.42;;;21.80;65.30;;;;;;4969084;28;20019;-75
2022/01/01 03:34:32;;;;;;;38.40;4.63;;;21.70;65.60;;;;;;4967861;28;20533;-75
2022/01/01 03:36:58;;;;;;;38.53;5.20;;;21.70;65.50;;;;;;4967244;28;20026;-75
2022/01/01 03:39:27;;;;;;;59.17;7.28;;;21.70;65.90;;;;;;4964650;28;20038;-75
2022/01/01 03:41:53;;;;;;;54.10;6.88;;;21.70;65.50;;;;;;4964608;28;20019;-76
2022/01/01 03:44:20;;;;;;;25.88;5.15;;;21.70;65.30;;;;;;4966512;28;20482;-76
2022/01/01 03:46:46;;;;;;;18.70;2.38;;;21.60;65.00;;;;;;4968198;28;20031;-75
2022/01/01 03:49:14;;;;;;;12.15;1.83;;;21.70;64.80;;;;;;4966453;28;20461;-76
2022/01/01 03:51:41;;;;;;;15.23;2.10;;;21.60;64.40;;;;;;4966765;28;20026;-75
2022/01/01 03:54:07;;;;;;;15.80;2.30;;;21.60;64.30;;;;;;4969902;28;20050;-78
2022/01/01 03:56:37;;;;;;;28.70;3.05;;;21.60;64.10;;;;;;4968912;28;20041;-78
2022/01/01 03:59:04;;;;;;;15.88;3.40;;;21.50;64.00;;;;;;4965783;28;20113;-76
2022/01/01 04:01:30;;;;;;;14.57;2.17;;;21.60;64.00;;;;;;4969414;28;20037;-77
2022/01/01 04:03:56;;;;;;;6.18;1.70;;;21.50;63.60;;;;;;4970846;28;20474;-77
2022/01/01 04:06:23;;;;;;;29.23;3.33;;;21.50;63.50;;;;;;4971190;28;20409;-79
2022/01/01 04:08:49;;;;;;;30.70;3.05;;;21.50;63.60;;;;;;4968093;28;20023;-78
2022/01/01 04:11:16;;;;;;;11.57;2.28;;;21.50;63.80;;;;;;4970692;28;20102;-77
2022/01/01 04:13:42;;;;;;;9.02;1.92;;;21.50;63.60;;;;;;4972471;28;20049;-78
2022/01/01 04:16:11;;;;;;;6.18;1.13;;;21.50;63.40;;;;;;4971706;28;20026;-77
2022/01/01 04:18:40;;;;;;;7.18;1.60;;;21.50;64.00;;;;;;4970880;28;20097;-76
2022/01/01 04:21:12;;;;;;;18.73;3.78;;;21.50;63.20;;;;;;4968252;28;20042;-77
2022/01/01 04:23:39;;;;;;;5.30;1.48;;;21.50;63.20;;;;;;4970294;28;20037;-77
2022/01/01 04:26:07;;;;;;;15.15;2.60;;;21.50;63.10;;;;;;4971140;28;20078;-77
2022/01/01 04:28:35;;;;;;;5.97;1.52;;;21.50;62.90;;;;;;4951667;28;20058;-77
2022/01/01 04:31:03;;;;;;;11.38;2.00;;;21.50;62.80;;;;;;4963623;28;20102;-77
2022/01/01 04:33:30;;;;;;;5.78;1.13;;;21.50;62.80;;;;;;4952196;28;20050;-77
2022/01/01 04:35:57;;;;;;;3.88;1.20;;;21.50;62.70;;;;;;4968840;28;20030;-75
2022/01/01 04:38:45;;;;;;;4.88;1.20;;;21.50;62.70;;;;;;4972945;28;20015;-78
2022/01/01 04:41:13;;;;;;;2.25;0.88;;;21.50;62.70;;;;;;4969767;28;20057;-77
2022/01/01 04:43:41;;;;;;;10.73;1.15;;;21.50;62.60;;;;;;4970073;28;20548;-77
2022/01/01 04:46:10;;;;;;;2.72;0.95;;;21.60;62.60;;;;;;4969257;28;20704;-77
2022/01/01 04:48:37;;;;;;;2.97;1.10;;;21.50;62.40;;;;;;4968343;28;20486;-77
2022/01/01 04:51:07;;;;;;;7.30;1.45;;;21.50;62.50;;;;;;4970140;28;20023;-78
2022/01/01 04:53:39;;;;;;;10.13;1.85;;;21.50;62.60;;;;;;4970359;28;20027;-77
2022/01/01 04:56:07;;;;;;;7.32;1.10;;;21.50;62.60;;;;;;4966811;28;20070;-77
2022/01/01 04:58:35;;;;;;;2.35;0.88;;;21.50;62.50;;;;;;4965660;28;20029;-75
2022/01/01 05:01:02;;;;;;;7.07;1.35;;;21.60;63.10;;;;;;4972707;28;20026;-77
2022/01/01 05:03:28;;;;;;;5.05;1.38;;;21.50;62.40;;;;;;4968847;28;20174;-78
2022/01/01 05:05:55;;;;;;;9.32;2.60;;;21.50;62.40;;;;;;4973509;28;20023;-79
2022/01/01 05:08:21;;;;;;;9.10;1.65;;;21.60;63.00;;;;;;4967485;28;20501;-77
2022/01/01 05:10:48;;;;;;;4.13;0.80;;;21.60;63.40;;;;;;4969293;28;20031;-77
2022/01/01 05:13:14;;;;;;;7.50;1.30;;;21.60;63.80;;;;;;4967323;28;20169;-73
2022/01/01 05:15:41;;;;;;;5.40;1.08;;;21.50;64.20;;;;;;4968447;28;20019;-77
2022/01/01 05:18:07;;;;;;;4.90;1.20;;;21.60;64.50;;;;;;4971025;28;20015;-76
2022/01/01 05:20:34;;;;;;;5.00;1.52;;;21.50;64.90;;;;;;4969233;28;20038;-77
2022/01/01 05:23:00;;;;;;;3.80;1.83;;;21.50;65.30;;;;;;4968298;28;20054;-78
2022/01/01 05:25:28;;;;;;;3.63;0.93;;;21.50;65.70;;;;;;4970966;28;20481;-76
2022/01/01 05:27:54;;;;;;;5.50;1.38;;;21.50;65.80;;;;;;4954215;28;20478;-79
2022/01/01 05:30:21;;;;;;;1.77;0.88;;;21.50;66.10;;;;;;4965781;28;20023;-75
2022/01/01 05:32:47;;;;;;;2.13;1.20;;;21.50;66.10;;;;;;4968783;28;20035;-76
2022/01/01 05:35:14;;;;;;;4.05;1.38;;;21.50;66.10;;;;;;4969706;28;20026;-74
2022/01/01 05:37:40;;;;;;;4.13;1.10;;;21.50;66.30;;;;;;4935762;28;20033;-75
2022/01/01 05:40:07;;;;;;;2.88;1.35;;;21.50;66.60;;;;;;4971148;28;20037;-74
2022/01/01 05:42:34;;;;;;;6.30;0.98;;;21.60;67.10;;;;;;4967558;28;20097;-74
2022/01/01 05:45:00;;;;;;;3.63;1.17;;;21.50;67.40;;;;;;4968809;28;20039;-73
2022/01/01 05:47:27;;;;;;;4.75;1.20;;;21.60;67.90;;;;;;4965311;28;20073;-75
2022/01/01 05:49:53;;;;;;;5.20;1.30;;;21.50;68.20;;;;;;4969442;28;20154;-74
2022/01/01 05:52:20;;;;;;;3.90;1.48;;;21.50;68.50;;;;;;4969763;28;20378;-75
2022/01/01 05:54:46;;;;;;;6.70;1.60;;;21.50;68.70;;;;;;4968055;28;20069;-73
2022/01/01 05:57:13;;;;;;;15.00;2.08;;;21.50;69.10;;;;;;4970403;28;20023;-74
2022/01/01 05:59:41;;;;;;;13.15;2.35;;;21.50;69.30;;;;;;4966959;28;20390;-73
2022/01/01 06:02:08;;;;;;;7.38;1.25;;;21.50;69.60;;;;;;4971595;28;20158;-73
2022/01/01 06:04:35;;;;;;;9.15;1.48;;;21.50;69.80;;;;;;4964924;28;20046;-72
2022/01/01 06:07:02;;;;;;;5.43;1.17;;;21.50;69.90;;;;;;4967703;28;20042;-71
2022/01/01 06:09:29;;;;;;;7.28;1.33;;;21.50;70.10;;;;;;4970147;28;20023;-72
2022/01/01 06:11:55;;;;;;;14.05;1.77;;;21.50;70.40;;;;;;4970527;28;20592;-72
2022/01/01 06:14:22;;;;;;;38.17;23.63;;;21.50;71.40;;;;;;4968145;28;20019;-72
2022/01/01 06:16:49;;;;;;;33.10;15.77;;;21.50;71.70;;;;;;4968249;28;20019;-72
2022/01/01 06:19:17;;;;;;;13.45;9.48;;;21.50;71.80;;;;;;4950204;28;20046;-73
2022/01/01 06:21:43;;;;;;;8.15;4.90;;;21.40;71.70;;;;;;4969520;28;20043;-75
2022/01/01 06:24:11;;;;;;;8.77;2.90;;;21.40;71.40;;;;;;4962470;28;20038;-72
2022/01/01 06:26:38;;;;;;;8.57;3.45;;;21.40;71.30;;;;;;4968687;28;20031;-72
2022/01/01 06:29:04;;;;;;;8.15;1.60;;;21.40;71.30;;;;;;4970955;28;20482;-72
2022/01/01 06:31:31;;;;;;;7.78;2.35;;;21.40;71.30;;;;;;4968255;28;20126;-72
2022/01/01 06:33:57;;;;;;;14.68;2.38;;;21.40;71.30;;;;;;4968075;28;20023;-72
2022/01/01 06:36:24;;;;;;;10.07;2.17;;;21.40;71.80;;;;;;4966803;28;20027;-72
2022/01/01 06:38:50;;;;;;;12.88;2.03;;;21.40;72.20;;;;;;4966651;28;20019;-72
2022/01/01 06:41:18;;;;;;;26.20;11.63;;;21.40;72.60;;;;;;4968059;28;20081;-72
2022/01/01 06:43:44;;;;;;;16.65;7.40;;;21.40;72.90;;;;;;4967340;28;20030;-72
2022/01/01 06:46:10;;;;;;;10.65;4.68;;;21.40;73.10;;;;;;4968559;28;20114;-72
2022/01/01 06:48:37;;;;;;;6.15;2.83;;;21.40;73.30;;;;;;4967931;28;20816;-72
2022/01/01 06:51:03;;;;;;;6.50;2.17;;;21.40;73.40;;;;;;4966463;28;20029;-72
2022/01/01 06:53:30;;;;;;;5.10;1.77;;;21.30;73.70;;;;;;4963976;28;20054;-71
2022/01/01 06:55:59;;;;;;;5.45;1.38;;;21.30;74.00;;;;;;4962240;28;20414;-71
2022/01/01 06:58:27;;;;;;;5.50;1.27;;;21.40;74.50;;;;;;4960496;28;20497;-72
2022/01/01 07:00:53;;;;;;;13.60;4.55;;;21.40;74.70;;;;;;4964593;28;20433;-72
2022/01/01 07:03:23;;;;;;;11.07;1.98;;;21.40;75.10;;;;;;4964088;28;20030;-72
2022/01/01 07:05:50;;;;;;;8.77;1.83;;;21.40;75.30;;;;;;4945023;28;20035;-72
2022/01/01 07:08:17;;;;;;;14.23;2.05;;;21.40;75.50;;;;;;4962102;28;20034;-72
2022/01/01 07:10:45;;;;;;;5.20;1.35;;;21.40;75.60;;;;;;4967436;28;20477;-72
2022/01/01 07:13:16;;;;;;;6.68;1.23;;;21.40;75.70;;;;;;4967578;28;20110;-72
2022/01/01 07:15:43;;;;;;;8.13;1.40;;;21.40;75.70;;;;;;4966468;28;20142;-72
2022/01/01 07:18:11;;;;;;;8.10;1.70;;;21.40;75.80;;;;;;4966016;28;20021;-71
2022/01/01 07:20:38;;;;;;;14.50;3.13;;;21.50;76.00;;;;;;4935409;28;20030;-73
2022/01/01 07:23:05;;;;;;;13.07;2.97;;;21.50;76.10;;;;;;4963899;28;20128;-72
2022/01/01 07:25:31;;;;;;;9.32;2.03;;;21.50;76.10;;;;;;4968467;28;20493;-71
2022/01/01 07:27:58;;;;;;;9.75;1.83;;;21.40;76.10;;;;;;4967461;28;20023;-71
2022/01/01 07:30:25;;;;;;;10.93;2.15;;;21.50;76.20;;;;;;4967804;28;20007;-71
2022/01/01 07:32:51;;;;;;;22.27;11.68;;;21.50;76.20;;;;;;4951936;28;20027;-71
2022/01/01 07:35:19;;;;;;;25.38;17.33;;;21.50;76.30;;;;;;4956570;28;20023;-76
2022/01/01 07:37:47;;;;;;;20.30;13.38;;;21.50;76.40;;;;;;4956059;28;20034;-77
2022/01/01 07:40:15;;;;;;;13.93;7.38;;;21.40;76.40;;;;;;4953393;28;20637;-74
2022/01/01 07:42:43;;;;;;;7.40;4.03;;;21.50;76.50;;;;;;4967041;28;20046;-73
2022/01/01 07:45:10;;;;;;;8.35;2.88;;;21.40;76.30;;;;;;4974541;28;20088;-75
2022/01/01 07:47:37;;;;;;;9.15;2.08;;;21.40;76.40;;;;;;4963005;28;20029;-72
2022/01/01 07:50:05;;;;;;;4.72;1.70;;;21.40;76.40;;;;;;4971606;28;20026;-72
2022/01/01 07:52:32;;;;;;;3.22;1.35;;;21.40;76.50;;;;;;4970924;28;20482;-72
2022/01/01 07:54:59;;;;;;;5.60;1.25;;;21.40;76.50;;;;;;4966135;28;20019;-73
2022/01/01 07:57:25;;;;;;;7.78;1.58;;;21.40;76.70;;;;;;4963344;28;20034;-71
2022/01/01 07:59:51;;;;;;;6.85;1.70;;;21.40;76.80;;;;;;4971106;28;20031;-73
2022/01/01 08:02:18;;;;;;;5.70;1.35;;;21.40;77.00;;;;;;4969922;28;20030;-73
2022/01/01 08:04:45;;;;;;;4.80;2.10;;;21.40;77.10;;;;;;4968025;28;20561;-72
2022/01/01 08:07:11;;;;;;;1.73;1.02;;;21.40;77.10;;;;;;4971355;28;20018;-73
2022/01/01 08:09:38;;;;;;;12.13;2.53;;;21.40;77.20;;;;;;4968038;28;20035;-72
2022/01/01 08:12:07;;;;;;;28.17;3.03;;;21.40;77.40;;;;;;4968697;28;20029;-72
2022/01/01 08:14:33;;;;;;;9.15;2.47;;;21.40;77.80;;;;;;4969017;28;20015;-71
2022/01/01 08:17:03;;;;;;;16.42;2.90;;;21.50;78.30;;;;;;4968843;28;20031;-75
2022/01/01 08:19:29;;;;;;;23.42;3.15;;;21.50;78.80;;;;;;4969818;28;20027;-72
2022/01/01 08:21:56;;;;;;;14.30;2.33;;;21.50;79.30;;;;;;4971891;28;20472;-72
2022/01/01 08:24:24;;;;;;;14.43;3.13;;;21.50;79.60;;;;;;4966480;28;20065;-71
2022/01/01 08:26:51;;;;;;;60.70;7.50;;;21.50;79.90;;;;;;4959780;28;20018;-71
2022/01/01 08:29:18;;;;;;;48.50;4.78;;;21.50;80.20;;;;;;4966743;28;20712;-70
2022/01/01 08:31:44;;;;;;;26.40;3.28;;;21.50;80.40;;;;;;4963656;28;20011;-70
2022/01/01 08:34:11;;;;;;;21.17;2.75;;;21.60;80.60;;;;;;4971028;28;20562;-71
2022/01/01 08:36:37;;;;;;;8.45;2.72;;;21.60;80.60;;;;;;4970834;28;20030;-72
2022/01/01 08:39:06;;;;;;;5.30;1.00;;;21.60;80.60;;;;;;4972927;28;20023;-71
2022/01/01 08:41:33;;;;;;;14.18;3.10;;;21.60;80.50;;;;;;4968748;28;20030;-69
2022/01/01 08:43:59;;;;;;;10.55;5.03;;;21.60;80.20;;;;;;4971128;28;20026;-69
2022/01/01 08:46:26;;;;;;;12.75;6.97;;;21.60;80.20;;;;;;4970332;28;20015;-71
2022/01/01 08:48:52;;;;;;;10.60;5.07;;;21.60;80.20;;;;;;4968675;28;20038;-74
2022/01/01 08:51:21;;;;;;;9.65;3.40;;;21.60;80.20;;;;;;4970938;28;20374;-71
2022/01/01 08:53:48;;;;;;;5.95;2.85;;;21.70;80.20;;;;;;4969590;28;20031;-70
2022/01/01 08:56:16;;;;;;;7.20;2.38;;;21.70;80.10;;;;;;4967689;28;20474;-72
2022/01/01 08:58:43;;;;;;;7.93;2.38;;;21.70;80.00;;;;;;4954962;28;20026;-69
2022/01/01 09:01:10;;;;;;;10.05;3.20;;;21.80;79.80;;;;;;4965054;28;20007;-71
2022/01/01 09:03:37;;;;;;;7.68;2.00;;;21.80;79.70;;;;;;4955135;28;20039;-70
2022/01/01 09:06:05;;;;;;;6.45;1.98;;;21.80;79.60;;;;;;4936599;28;20027;-69
2022/01/01 09:08:34;;;;;;;4.90;1.65;;;21.90;79.50;;;;;;4971057;28;20482;-69
2022/01/01 09:11:00;;;;;;;8.02;1.88;;;21.90;79.40;;;;;;4968784;28;20434;-70
2022/01/01 09:13:27;;;;;;;10.95;2.22;;;22.00;79.40;;;;;;4971106;28;20022;-71
2022/01/01 09:15:53;;;;;;;11.70;2.85;;;22.00;79.40;;;;;;4971192;28;20503;-72
2022/01/01 09:18:20;;;;;;;8.98;3.53;;;22.00;79.40;;;;;;4967745;28;20038;-71
2022/01/01 09:20:48;;;;;;;11.77;3.10;;;22.10;79.50;;;;;;4969150;28;20025;-71
2022/01/01 09:23:17;;;;;;;7.10;2.83;;;22.20;79.60;;;;;;4968654;28;20069;-73
2022/01/01 09:25:43;;;;;;;4.63;1.85;;;22.30;79.50;;;;;;4970740;28;20045;-74
2022/01/01 09:28:10;;;;;;;11.38;3.42;;;22.30;79.30;;;;;;4970002;28;20965;-74
2022/01/01 09:30:36;;;;;;;6.70;1.55;;;22.40;79.00;;;;;;4953877;28;20090;-72
2022/01/01 09:33:03;;;;;;;8.02;1.63;;;22.40;78.70;;;;;;4969835;28;20106;-72
2022/01/01 09:35:30;;;;;;;6.28;1.92;;;22.50;78.40;;;;;;4971183;28;20509;-73
2022/01/01 09:37:56;;;;;;;6.50;1.92;;;22.50;78.10;;;;;;4969644;28;20035;-75
2022/01/01 09:40:23;;;;;;;5.15;1.90;;;22.60;77.70;;;;;;4967119;28;20015;-73
2022/01/01 09:42:52;;;;;;;5.28;1.50;;;22.60;77.30;;;;;;4971019;28;20038;-74
2022/01/01 09:45:20;;;;;;;7.45;2.45;;;22.60;76.80;;;;;;4969789;28;20139;-74
2022/01/01 09:47:47;;;;;;;11.20;2.13;;;22.60;76.30;;;;;;4967363;28;20018;-74
2022/01/01 09:50:14;;;;;;;17.63;4.15;;;22.70;75.90;;;;;;4964477;28;20082;-74
2022/01/01 09:52:41;;;;;;;26.10;7.28;;;22.70;75.50;;;;;;4969523;28;20422;-73
2022/01/01 09:55:09;;;;;;;22.13;5.68;;;22.70;74.80;;;;;;4971317;28;20037;-74
2022/01/01 09:57:35;;;;;;;18.52;5.55;;;22.70;74.40;;;;;;4968741;28;20107;-72
2022/01/01 10:00:05;;;;;;;10.73;3.00;;;22.70;73.90;;;;;;4953286;28;20134;-73
2022/01/01 10:02:33;;;;;;;23.10;4.00;;;22.70;74.00;;;;;;4967137;28;20405;-72
2022/01/01 10:05:05;;;;;;;21.27;6.10;;;22.70;72.90;;;;;;4970425;28;20037;-73
2022/01/01 10:07:32;;;;;;;10.85;2.97;;;22.70;72.70;;;;;;4968910;28;20437;-73
2022/01/01 10:10:15;;;;;;;16.58;2.75;;;22.60;72.50;;;;;;4952552;28;20034;-72
2022/01/01 10:12:43;;;;;;;16.88;2.67;;;22.70;72.20;;;;;;4967640;28;20023;-71
2022/01/01 10:15:11;;;;;;;7.10;2.38;;;22.70;72.40;;;;;;4969717;28;20010;-71
2022/01/01 10:17:38;;;;;;;7.57;2.25;;;22.70;72.30;;;;;;4951163;28;20031;-72
2022/01/01 10:20:06;;;;;;;25.75;3.47;;;22.80;72.00;;;;;;4969804;28;20649;-72
2022/01/01 10:22:32;;;;;;;78.30;11.68;;;22.80;71.90;;;;;;4969687;28;20113;-71
2022/01/01 10:28:00;;;;;;;68.18;9.63;;;23.00;72.10;;;;;;4955852;28;20133;-71
2022/01/01 10:30:40;;;;;;;114.65;11.45;;;23.10;72.20;;;;;;4963259;28;20049;-72
2022/01/01 10:33:20;;;;;;;59.60;9.75;;;23.20;72.10;;;;;;4963935;28;20030;-71
2022/01/01 10:35:52;;;;;;;55.17;7.97;;;23.20;70.80;;;;;;4966891;28;20062;-73
2022/01/01 10:38:22;;;;;;;27.80;6.40;;;23.30;69.90;;;;;;4963613;28;20035;-72
2022/01/01 10:40:54;;;;;;;13.30;3.90;;;23.40;68.70;;;;;;4967446;28;20015;-71
2022/01/01 10:43:23;;;;;;;17.63;3.78;;;23.40;67.80;;;;;;4957720;28;21721;-71
2022/01/01 10:45:50;;;;;;;11.40;2.75;;;23.50;66.80;;;;;;4965203;28;20018;-72
2022/01/01 10:48:28;;;;;;;12.35;2.85;;;23.60;66.10;;;;;;4969267;28;20067;-72
2022/01/01 10:50:56;;;;;;;14.10;3.75;;;23.60;65.50;;;;;;4967509;28;20038;-72
2022/01/01 10:53:28;;;;;;;12.07;2.65;;;23.70;64.70;;;;;;4962913;28;20027;-73
2022/01/01 10:55:56;;;;;;;10.02;3.92;;;23.70;63.90;;;;;;4959723;28;20130;-72
2022/01/01 10:58:34;;;;;;;14.55;3.38;;;23.80;63.30;;;;;;4964723;28;20507;-74
2022/01/01 11:01:06;;;;;;;50.00;6.75;;;23.80;61.80;;;;;;4958835;28;20019;-72
2022/01/01 11:04:01;;;;;;;37.35;5.40;;;23.80;62.00;;;;;;4931848;28;20145;-73
2022/01/01 11:06:34;;;;;;;16.52;3.63;;;23.80;62.40;;;;;;4966485;28;20062;-71
2022/01/01 11:09:01;;;;;;;17.45;4.03;;;23.90;62.30;;;;;;4964017;28;20031;-71
2022/01/01 11:11:28;;;;;;;19.05;4.05;;;23.90;61.60;;;;;;4966610;28;20485;-71
2022/01/01 11:13:55;;;;;;;38.67;6.30;;;23.90;60.60;;;;;;4969461;28;20215;-72
2022/01/01 11:16:22;;;;;;;14.32;5.25;;;23.80;60.30;;;;;;4962461;28;20034;-71
2022/01/01 11:18:50;;;;;;;13.93;4.03;;;23.80;60.60;;;;;;4965615;28;20371;-71
2022/01/01 11:21:17;;;;;;;14.82;3.30;;;23.90;60.50;;;;;;4964633;28;20050;-72
2022/01/01 11:23:46;;;;;;;11.20;2.80;;;23.90;60.00;;;;;;4966285;28;20077;-77
2022/01/01 11:26:13;;;;;;;14.10;2.78;;;24.00;59.80;;;;;;4965927;28;20121;-76
2022/01/01 11:28:40;;;;;;;11.27;3.00;;;24.00;59.40;;;;;;4965689;28;20015;-76
2022/01/01 11:31:16;;;;;;;13.90;3.53;;;24.10;59.10;;;;;;4968350;28;20065;-75
2022/01/01 11:33:51;;;;;;;10.25;3.03;;;24.20;58.80;;;;;;4964038;28;20027;-71
2022/01/01 11:36:23;;;;;;;10.95;2.92;;;24.20;57.80;;;;;;4967584;28;20027;-72
2022/01/01 11:38:52;;;;;;;8.27;2.65;;;24.30;56.80;;;;;;4966620;28;20081;-78
2022/01/01 11:41:19;;;;;;;11.70;3.28;;;24.40;56.10;;;;;;4968364;28;20015;-76
2022/01/01 11:43:53;;;;;;;13.68;2.80;;;24.40;56.60;;;;;;4952154;28;20094;-76
2022/01/01 11:46:29;;;;;;;10.55;3.05;;;24.50;55.30;;;;;;4952672;28;20046;-74
2022/01/01 11:49:04;;;;;;;15.80;2.78;;;24.60;54.40;;;;;;4964803;28;20114;-72
2022/01/01 11:51:38;;;;;;;16.27;2.50;;;24.60;53.50;;;;;;4949462;28;20023;-71
2022/01/01 11:54:31;;;;;;;11.73;2.70;;;24.60;53.20;;;;;;4967885;28;20034;-70
2022/01/01 11:57:06;;;;;;;8.68;3.53;;;24.60;53.10;;;;;;4969321;28;20061;-74
2022/01/01 11:59:45;;;;;;;11.85;3.55;;;24.60;52.80;;;;;;4965652;28;20041;-74
2022/01/01 12:02:20;;;;;;;8.63;2.92;;;24.60;53.40;;;;;;4966499;28;20097;-73
2022/01/01 12:04:51;;;;;;;11.52;2.85;;;24.60;53.50;;;;;;4966050;28;20481;-69
2022/01/01 12:07:21;;;;;;;8.38;3.03;;;24.60;52.70;;;;;;4963650;28;20027;-71
2022/01/01 12:10:11;;;;;;;9.68;2.55;;;24.60;52.10;;;;;;4969064;28;20118;-72
2022/01/01 12:12:45;;;;;;;22.27;3.53;;;24.60;52.80;;;;;;4947258;28;20035;-75
2022/01/01 12:15:28;;;;;;;16.60;3.47;;;24.70;51.60;;;;;;4966730;28;20050;-70
2022/01/01 12:17:57;;;;;;;19.80;3.80;;;24.70;51.50;;;;;;4963063;28;20519;-71
2022/01/01 12:20:51;;;;;;;14.23;3.55;;;24.80;50.70;;;;;;4965772;28;20031;-71
2022/01/01 12:23:23;;;;;;;9.38;2.65;;;24.90;49.80;;;;;;4970032;28;20047;-71
2022/01/01 12:25:54;;;;;;;15.23;7.03;;;24.90;48.80;;;;;;4968329;28;20517;-73
2022/01/01 12:28:26;;;;;;;16.70;9.80;;;25.00;48.80;;;;;;4968238;28;20054;-75
2022/01/01 12:30:54;;;;;;;13.05;6.10;;;25.00;48.00;;;;;;4971754;28;20042;-71
2022/01/01 12:33:43;;;;;;;13.82;4.55;;;25.10;48.40;;;;;;4969045;28;20038;-72
2022/01/01 12:36:33;;;;;;;13.65;3.45;;;25.20;48.60;;;;;;4955226;28;20026;-75
2022/01/01 12:39:04;;;;;;;12.40;3.50;;;25.20;48.80;;;;;;4968297;28;20030;-75
2022/01/01 12:41:32;;;;;;;9.05;2.92;;;25.20;48.60;;;;;;4970970;28;20019;-72
2022/01/01 12:44:01;;;;;;;7.18;2.30;;;25.30;48.60;;;;;;4970073;28;20035;-74
2022/01/01 12:46:30;;;;;;;13.15;2.83;;;25.30;48.30;;;;;;4967642;28;20061;-74
2022/01/01 12:49:00;;;;;;;11.20;2.30;;;25.30;48.20;;;;;;4968823;28;20097;-72
2022/01/01 12:51:29;;;;;;;8.40;2.40;;;25.30;48.20;;;;;;4968075;28;20030;-73